Time;durP1;ratioP1;P1;durP2;ratioP2;P2;SDS_P1;SDS_P2;PMS_P1;PMS_P2;Temp;Humidity;BMP_temperature;BMP_pressure;BME280_temperature;BME280_humidity;BME280_pressure;Samples;Min_cycle;Max_cycle;Signal;HPM_P1;HPM_P2
2021/03/29 00:00:26;;;;;;;0.20;0.20;;;11.00;99.90;;;;;;4942996;29;20026;-96
2021/03/29 00:02:52;;;;;;;0.50;0.30;;;11.00;99.90;;;;;;4945007;29;20122;-93
2021/03/29 00:05:20;;;;;;;3.40;0.43;;;11.00;99.90;;;;;;4959836;29;20036;-94
2021/03/29 00:07:52;;;;;;;1.58;0.50;;;11.00;99.90;;;;;;4960340;29;20107;-95
2021/03/29 00:10:18;;;;;;;1.45;0.30;;;11.00;99.90;;;;;;4960664;29;20544;-94
2021/03/29 00:12:47;;;;;;;1.10;0.40;;;11.00;99.90;;;;;;4961134;29;20023;-94
2021/03/29 00:15:16;;;;;;;0.65;0.20;;;11.00;99.90;;;;;;4946602;29;20031;-94
2021/03/29 00:17:43;;;;;;;0.30;0.28;;;10.90;99.90;;;;;;4945877;29;20047;-94
2021/03/29 00:20:30;;;;;;;0.68;0.35;;;10.90;99.90;;;;;;4950823;29;20040;-94
2021/03/29 00:22:57;;;;;;;0.10;0.10;;;10.90;99.90;;;;;;4977526;28;20087;-94
2021/03/29 00:25:24;;;;;;;0.40;0.25;;;10.90;99.90;;;;;;4960686;29;20039;-95
2021/03/29 00:27:50;;;;;;;0.28;0.28;;;10.90;99.90;;;;;;4951492;29;20034;-94
2021/03/29 00:30:20;;;;;;;0.35;0.17;;;10.90;99.90;;;;;;4945576;29;20114;-95
2021/03/29 00:32:48;;;;;;;1.55;0.43;;;10.90;99.90;;;;;;4946231;29;20019;-94
2021/03/29 00:35:16;;;;;;;0.65;0.30;;;10.90;99.90;;;;;;4945277;29;20031;-94
2021/03/29 00:37:45;;;;;;;0.15;0.15;;;10.90;99.90;;;;;;4961503;29;20023;-94
2021/03/29 00:40:12;;;;;;;0.20;0.20;;;10.90;99.90;;;;;;4944442;29;20035;-95
2021/03/29 00:42:39;;;;;;;1.77;0.40;;;11.00;99.90;;;;;;4944149;29;20032;-93
2021/03/29 00:45:10;;;;;;;0.15;0.13;;;11.00;99.90;;;;;;4943223;29;20050;-96
2021/03/29 00:47:37;;;;;;;0.10;0.10;;;11.00;99.90;;;;;;4963819;29;20034;-95
2021/03/29 00:50:38;;;;;;;0.10;0.10;;;11.00;99.90;;;;;;4944202;29;20473;-94
2021/03/29 00:53:04;;;;;;;0.60;0.30;;;11.00;99.90;;;;;;4937853;29;20036;-94
2021/03/29 00:55:31;;;;;;;0.70;0.32;;;11.00;99.90;;;;;;4959853;28;20074;-94
2021/03/29 00:57:58;;;;;;;0.45;0.15;;;11.00;99.90;;;;;;4942022;29;20043;-94
2021/03/29 01:00:34;;;;;;;0.50;0.20;;;11.00;99.90;;;;;;4943392;29;20027;-95
2021/03/29 01:03:00;;;;;;;0.47;0.20;;;11.00;99.90;;;;;;4941150;29;20027;-95
2021/03/29 01:05:26;;;;;;;0.20;0.20;;;11.00;99.90;;;;;;4942274;29;20039;-95
2021/03/29 01:07:53;;;;;;;0.60;0.17;;;11.00;99.90;;;;;;4959178;29;20374;-94
2021/03/29 01:10:21;;;;;;;1.67;0.32;;;11.00;99.90;;;;;;4961443;28;20023;-95
2021/03/29 01:12:48;;;;;;;1.48;0.17;;;11.00;99.90;;;;;;4960646;28;20110;-96
2021/03/29 01:15:17;;;;;;;1.20;0.22;;;11.00;99.90;;;;;;4960991;28;20122;-94
2021/03/29 01:17:45;;;;;;;2.95;0.35;;;11.00;99.90;;;;;;4962815;28;20428;-95
2021/03/29 01:20:34;;;;;;;0.60;0.20;;;11.00;99.90;;;;;;4961166;28;20030;-94
2021/03/29 01:23:02;;;;;;;1.08;0.22;;;11.00;99.90;;;;;;4960887;28;20035;-95
2021/03/29 01:25:52;;;;;;;0.20;0.20;;;11.00;99.90;;;;;;4961655;28;20031;-94
2021/03/29 01:28:22;;;;;;;1.88;0.20;;;11.00;99.90;;;;;;4964136;28;20042;-94
2021/03/29 01:30:49;;;;;;;0.45;0.45;;;11.00;99.90;;;;;;4960759;28;20058;-95
2021/03/29 01:33:15;;;;;;;1.75;0.35;;;11.00;99.90;;;;;;4977737;28;20027;-95
2021/03/29 01:35:49;;;;;;;0.98;0.30;;;11.00;99.90;;;;;;4977611;28;20027;-94
2021/03/29 01:38:16;;;;;;;0.55;0.30;;;11.00;99.90;;;;;;4978596;28;20033;-96
2021/03/29 01:40:43;;;;;;;0.43;0.20;;;11.00;99.90;;;;;;4962225;28;20034;-94
2021/03/29 01:43:11;;;;;;;0.10;0.10;;;11.00;99.90;;;;;;4962937;28;20019;-93
2021/03/29 01:45:39;;;;;;;0.10;0.10;;;11.00;99.90;;;;;;4964662;28;20060;-94
2021/03/29 01:48:07;;;;;;;0.20;0.20;;;11.00;99.90;;;;;;4962647;28;20034;-95
2021/03/29 01:50:35;;;;;;;0.75;0.28;;;11.00;99.90;;;;;;4963985;28;20117;-94
2021/03/29 01:53:03;;;;;;;0.45;0.20;;;11.00;99.90;;;;;;4971266;28;20050;-94
2021/03/29 01:55:30;;;;;;;1.23;0.20;;;11.00;99.90;;;;;;4971227;29;20043;-95
2021/03/29 01:57:56;;;;;;;0.57;0.20;;;11.00;99.90;;;;;;4963155;29;20027;-94
2021/03/29 02:00:39;;;;;;;0.85;0.10;;;11.00;99.90;;;;;;4962044;29;20504;-93
2021/03/29 02:03:06;;;;;;;0.20;0.20;;;11.00;99.90;;;;;;4961644;29;20046;-96
2021/03/29 02:05:32;;;;;;;0.30;0.30;;;11.00;99.90;;;;;;4960813;29;20560;-95
2021/03/29 02:07:59;;;;;;;0.22;0.22;;;11.00;99.90;;;;;;4959847;29;20034;-95
2021/03/29 02:10:26;;;;;;;0.30;0.20;;;11.00;99.90;;;;;;4963520;29;20035;-94
2021/03/29 02:12:53;;;;;;;1.48;0.30;;;11.00;99.90;;;;;;4964045;29;20019;-94
2021/03/29 02:15:26;;;;;;;0.22;0.10;;;11.00;99.90;;;;;;4959696;28;20470;-95
2021/03/29 02:17:57;;;;;;;0.13;0.13;;;11.00;99.90;;;;;;4958089;29;20027;-96
2021/03/29 02:20:27;;;;;;;0.52;0.32;;;11.00;99.90;;;;;;4961603;29;20066;-95
2021/03/29 02:22:54;;;;;;;0.20;0.20;;;11.00;99.90;;;;;;4960236;29;20031;-95
2021/03/29 02:25:23;;;;;;;0.10;0.10;;;11.00;99.90;;;;;;4960371;29;20413;-95
2021/03/29 02:27:51;;;;;;;1.02;0.35;;;11.00;99.90;;;;;;4959662;29;20035;-93
2021/03/29 02:30:23;;;;;;;0.45;0.20;;;11.10;99.90;;;;;;4958371;29;20023;-96
2021/03/29 02:32:49;;;;;;;0.20;0.10;;;11.00;99.90;;;;;;4956853;29;20033;-95
2021/03/29 02:35:16;;;;;;;0.40;0.20;;;11.00;99.90;;;;;;4956826;29;20039;-95
2021/03/29 02:37:55;;;;;;;0.28;0.20;;;11.00;99.90;;;;;;4956176;29;20047;-94
2021/03/29 02:40:22;;;;;;;0.75;0.20;;;11.00;99.90;;;;;;4956632;28;20035;-94
2021/03/29 02:42:51;;;;;;;1.30;0.20;;;11.10;99.90;;;;;;4955549;29;20024;-95
2021/03/29 02:45:18;;;;;;;0.10;0.10;;;11.00;99.90;;;;;;4956599;29;20035;-95
2021/03/29 02:47:48;;;;;;;1.25;0.25;;;11.10;99.90;;;;;;4955290;29;20020;-94
2021/03/29 02:50:23;;;;;;;0.10;0.10;;;11.00;99.90;;;;;;4955787;28;20034;-95
2021/03/29 02:52:56;;;;;;;0.35;0.10;;;11.00;99.90;;;;;;4955352;29;20126;-96
2021/03/29 02:55:24;;;;;;;0.20;0.20;;;11.00;99.90;;;;;;4962245;28;20134;-94
2021/03/29 02:57:53;;;;;;;0.93;0.10;;;11.00;99.90;;;;;;4975915;28;20026;-96
2021/03/29 03:00:22;;;;;;;0.70;0.20;;;11.10;99.90;;;;;;4976437;28;20208;-94
2021/03/29 03:02:48;;;;;;;0.20;0.10;;;11.10;99.90;;;;;;4978531;28;20068;-94
2021/03/29 03:05:15;;;;;;;0.17;0.15;;;11.10;99.90;;;;;;4960698;28;20038;-95
2021/03/29 03:07:41;;;;;;;0.08;0.08;;;11.10;99.90;;;;;;4961326;28;20030;-95
2021/03/29 03:10:10;;;;;;;0.20;0.10;;;11.10;99.90;;;;;;4980047;28;20054;-94
2021/03/29 03:12:37;;;;;;;0.10;0.10;;;11.20;99.90;;;;;;4959380;28;20031;-94
2021/03/29 03:15:07;;;;;;;0.20;0.10;;;11.20;99.90;;;;;;4960962;28;20506;-96
2021/03/29 03:17:33;;;;;;;0.40;0.17;;;11.20;99.90;;;;;;4958940;28;20070;-94
2021/03/29 03:19:59;;;;;;;0.10;0.10;;;11.20;99.90;;;;;;4958574;28;20035;-95
2021/03/29 03:22:25;;;;;;;0.70;0.10;;;11.20;99.90;;;;;;4958345;28;20034;-95
2021/03/29 03:24:51;;;;;;;0.63;0.15;;;11.20;99.90;;;;;;4959966;28;20031;-95
2021/03/29 03:27:17;;;;;;;0.10;0.10;;;11.20;99.90;;;;;;4960857;28;20388;-94
2021/03/29 03:29:43;;;;;;;0.70;0.20;;;11.20;99.90;;;;;;4961249;28;20027;-95
2021/03/29 03:32:13;;;;;;;0.28;0.17;;;11.20;99.90;;;;;;4961204;28;20030;-95
2021/03/29 03:34:39;;;;;;;0.10;0.10;;;11.20;99.90;;;;;;4959336;28;20030;-94
2021/03/29 03:37:08;;;;;;;0.20;0.20;;;11.10;99.90;;;;;;4958905;28;20122;-95
2021/03/29 03:39:35;;;;;;;0.10;0.10;;;11.10;99.90;;;;;;4959747;28;20066;-94
2021/03/29 03:42:02;;;;;;;1.33;0.20;;;11.20;99.90;;;;;;4963037;28;20027;-94
2021/03/29 03:44:33;;;;;;;0.28;0.10;;;11.10;99.90;;;;;;4964196;28;20042;-95
2021/03/29 03:47:00;;;;;;;0.20;0.20;;;11.20;99.90;;;;;;4977796;28;20021;-95
2021/03/29 03:49:26;;;;;;;1.08;0.15;;;11.20;99.90;;;;;;4965990;28;20054;-95
2021/03/29 03:51:53;;;;;;;0.73;0.25;;;11.10;99.90;;;;;;4973959;28;20027;-95
2021/03/29 03:54:20;;;;;;;0.10;0.10;;;11.10;99.90;;;;;;4965159;28;20027;-95
2021/03/29 03:56:46;;;;;;;0.55;0.20;;;11.10;99.90;;;;;;4962773;28;20055;-96
2021/03/29 03:59:12;;;;;;;0.28;0.10;;;11.10;99.90;;;;;;4964070;28;20031;-94
2021/03/29 04:01:58;;;;;;;0.10;0.10;;;11.10;99.90;;;;;;4963408;28;20117;-95
2021/03/29 04:04:27;;;;;;;0.00;0.00;;;11.10;99.90;;;;;;4968736;28;20038;-95
2021/03/29 04:06:52;;;;;;;0.60;0.13;;;11.10;99.90;;;;;;4970192;28;20027;-95
2021/03/29 04:09:21;;;;;;;0.10;0.10;;;11.20;99.90;;;;;;4962026;28;20429;-94
2021/03/29 04:11:51;;;;;;;0.22;0.10;;;11.10;99.90;;;;;;4962263;28;20027;-95
2021/03/29 04:14:17;;;;;;;0.93;0.10;;;11.10;99.90;;;;;;4960805;28;20031;-94
2021/03/29 04:16:42;;;;;;;0.10;0.10;;;11.10;99.90;;;;;;4960751;28;20026;-93
2021/03/29 04:19:08;;;;;;;0.43;0.20;;;11.10;99.90;;;;;;4959370;28;20102;-94
2021/03/29 04:21:34;;;;;;;0.28;0.20;;;11.10;99.90;;;;;;4959752;28;20475;-95
2021/03/29 04:24:01;;;;;;;0.20;0.17;;;11.10;99.90;;;;;;4959110;28;20113;-95
2021/03/29 04:26:26;;;;;;;0.68;0.20;;;11.10;99.90;;;;;;4961242;28;20030;-95
2021/03/29 04:29:10;;;;;;;0.20;0.10;;;11.10;99.90;;;;;;4966151;28;20019;-95
2021/03/29 04:31:35;;;;;;;0.05;0.05;;;11.10;99.90;;;;;;4962370;28;20027;-94
2021/03/29 04:34:01;;;;;;;0.28;0.10;;;11.10;99.90;;;;;;4959492;28;20538;-94
2021/03/29 04:36:27;;;;;;;1.17;0.15;;;11.10;99.90;;;;;;4958791;28;20053;-94
2021/03/29 04:38:52;;;;;;;0.10;0.10;;;11.10;99.90;;;;;;4961553;28;20027;-95
2021/03/29 04:41:18;;;;;;;0.00;0.00;;;11.10;99.90;;;;;;4961932;28;20027;-94
2021/03/29 04:43:44;;;;;;;0.10;0.10;;;11.10;99.90;;;;;;4962053;28;20038;-95
2021/03/29 04:46:10;;;;;;;0.10;0.10;;;11.10;99.90;;;;;;4964660;28;20045;-94
2021/03/29 04:48:35;;;;;;;2.28;0.20;;;11.10;99.90;;;;;;4980647;28;20102;-95
2021/03/29 04:51:01;;;;;;;0.10;0.10;;;11.20;99.90;;;;;;4963151;28;20035;-95
2021/03/29 04:53:26;;;;;;;0.10;0.10;;;11.20;99.90;;;;;;4963520;28;20077;-96
2021/03/29 04:55:52;;;;;;;0.25;0.10;;;11.20;99.90;;;;;;4962085;28;20054;-93
2021/03/29 04:58:18;;;;;;;0.00;0.00;;;11.20;99.90;;;;;;4966672;28;20077;-94
2021/03/29 05:00:43;;;;;;;0.05;0.05;;;11.20;99.90;;;;;;4968953;28;20069;-94
2021/03/29 05:03:09;;;;;;;0.20;0.10;;;11.20;99.90;;;;;;4964817;28;20027;-94
2021/03/29 05:05:35;;;;;;;0.10;0.03;;;11.20;99.90;;;;;;4962186;28;20043;-95
2021/03/29 05:08:01;;;;;;;0.20;0.10;;;11.20;99.90;;;;;;4961261;28;20071;-94
2021/03/29 05:10:26;;;;;;;0.03;0.03;;;11.20;99.90;;;;;;4981195;28;20026;-94
2021/03/29 05:12:52;;;;;;;0.10;0.10;;;11.20;99.90;;;;;;4969927;28;20027;-94
2021/03/29 05:15:18;;;;;;;0.43;0.10;;;11.20;99.90;;;;;;4962418;28;20034;-91
2021/03/29 05:17:43;;;;;;;0.13;0.10;;;11.20;99.90;;;;;;4964520;28;20027;-92
2021/03/29 05:20:10;;;;;;;0.10;0.10;;;11.20;99.90;;;;;;4982545;28;20027;-94
2021/03/29 05:22:36;;;;;;;0.20;0.10;;;11.20;99.90;;;;;;4963828;28;20077;-96
2021/03/29 05:25:05;;;;;;;0.43;0.10;;;11.20;99.90;;;;;;4965440;28;20477;-93
2021/03/29 05:27:32;;;;;;;0.32;0.22;;;11.20;99.90;;;;;;4970865;28;20039;-95
2021/03/29 05:29:58;;;;;;;0.20;0.20;;;11.20;99.90;;;;;;4965101;28;20035;-94
2021/03/29 05:32:25;;;;;;;0.63;0.25;;;11.20;99.90;;;;;;4967994;28;20124;-96
2021/03/29 05:34:58;;;;;;;0.30;0.30;;;11.30;99.90;;;;;;4972636;28;20094;-95
2021/03/29 05:37:24;;;;;;;5.07;0.75;;;11.20;99.90;;;;;;4984053;28;20023;-95
2021/03/29 05:39:55;;;;;;;2.08;0.22;;;11.20;99.90;;;;;;4955474;28;20035;-93
2021/03/29 05:42:26;;;;;;;0.63;0.30;;;11.20;99.90;;;;;;4968712;28;20067;-95
2021/03/29 05:44:53;;;;;;;1.33;0.40;;;11.30;99.90;;;;;;4985239;28;20042;-93
2021/03/29 05:47:20;;;;;;;1.35;0.30;;;11.20;99.90;;;;;;4965503;28;20026;-94
2021/03/29 05:49:45;;;;;;;1.77;0.50;;;11.20;99.90;;;;;;4963300;28;20584;-95
2021/03/29 05:52:11;;;;;;;0.75;0.47;;;11.20;99.90;;;;;;4961450;28;20035;-92
2021/03/29 05:54:38;;;;;;;1.38;0.57;;;11.20;99.90;;;;;;4961621;28;20038;-95
2021/03/29 05:57:05;;;;;;;2.95;0.47;;;11.20;99.90;;;;;;4962531;28;20051;-95
2021/03/29 05:59:42;;;;;;;1.27;0.40;;;11.20;99.90;;;;;;4964509;28;20089;-93
2021/03/29 06:02:32;;;;;;;1.95;0.57;;;11.20;99.90;;;;;;4963531;28;20050;-94
2021/03/29 06:04:59;;;;;;;1.98;0.60;;;11.20;99.90;;;;;;4949511;29;20436;-96
2021/03/29 06:07:27;;;;;;;1.13;0.55;;;11.20;99.90;;;;;;4947952;29;20050;-95
2021/03/29 06:09:56;;;;;;;1.33;0.55;;;11.20;99.90;;;;;;4947429;29;20030;-95
2021/03/29 06:12:23;;;;;;;0.85;0.45;;;11.20;99.90;;;;;;4943146;29;20023;-94
2021/03/29 06:15:02;;;;;;;4.43;0.77;;;11.30;99.90;;;;;;4945998;29;20023;-95
2021/03/29 06:17:28;;;;;;;1.27;0.70;;;11.20;99.90;;;;;;4943672;29;20560;-95
2021/03/29 06:19:54;;;;;;;3.65;0.80;;;11.20;99.90;;;;;;4944676;29;20027;-93
2021/03/29 06:22:22;;;;;;;2.13;0.65;;;11.20;99.90;;;;;;4946702;29;20027;-94
2021/03/29 06:25:10;;;;;;;3.90;0.93;;;11.20;99.90;;;;;;4948454;29;20103;-96
2021/03/29 06:27:45;;;;;;;1.70;0.80;;;11.20;99.90;;;;;;4948187;29;20114;-95
2021/03/29 06:30:33;;;;;;;2.20;0.73;;;11.20;99.90;;;;;;4946657;29;20062;-95
2021/03/29 06:33:15;;;;;;;0.85;0.50;;;11.30;99.90;;;;;;4941248;29;20019;-96
2021/03/29 06:35:55;;;;;;;4.57;0.93;;;11.30;99.90;;;;;;4952611;29;20039;-95
2021/03/29 06:38:24;;;;;;;1.83;1.02;;;11.30;99.90;;;;;;4944232;29;20099;-95
2021/03/29 06:40:57;;;;;;;6.47;0.85;;;11.30;99.90;;;;;;4945072;29;20054;-96
2021/03/29 06:43:41;;;;;;;3.92;0.88;;;11.30;99.90;;;;;;4943019;29;20038;-95
2021/03/29 06:46:23;;;;;;;2.28;0.88;;;11.20;99.90;;;;;;4919937;29;20139;-93
2021/03/29 06:48:51;;;;;;;2.35;0.80;;;11.30;99.90;;;;;;4957554;29;20030;-94
2021/03/29 06:51:24;;;;;;;2.00;0.90;;;11.30;99.90;;;;;;4941088;29;20560;-93
2021/03/29 06:53:59;;;;;;;2.20;0.90;;;11.30;99.90;;;;;;4941328;29;20023;-93
2021/03/29 06:56:39;;;;;;;4.10;0.90;;;11.30;99.90;;;;;;4938342;29;20138;-93
2021/03/29 06:59:05;;;;;;;5.68;0.80;;;11.30;99.90;;;;;;4940220;29;20082;-93
2021/03/29 07:01:51;;;;;;;0.98;0.57;;;11.40;99.90;;;;;;4938983;29;20453;-93
2021/03/29 07:04:26;;;;;;;1.65;0.80;;;11.40;99.90;;;;;;4935828;29;20042;-93
2021/03/29 07:06:54;;;;;;;2.42;0.80;;;11.40;99.90;;;;;;4943061;29;20058;-94
2021/03/29 07:09:21;;;;;;;2.63;0.70;;;11.50;99.90;;;;;;4926652;29;20028;-94
2021/03/29 07:11:48;;;;;;;2.80;1.08;;;11.50;99.90;;;;;;4954236;28;20023;-94
2021/03/29 07:14:19;;;;;;;1.05;0.65;;;11.50;99.90;;;;;;4961381;28;20023;-94
2021/03/29 07:16:46;;;;;;;1.25;0.65;;;11.50;99.90;;;;;;4958345;29;20032;-94
2021/03/29 07:19:12;;;;;;;1.70;0.43;;;11.60;99.90;;;;;;4944263;29;20027;-94
2021/03/29 07:21:40;;;;;;;2.72;0.60;;;11.60;99.90;;;;;;4943061;29;20023;-94
2021/03/29 07:24:08;;;;;;;2.97;0.82;;;11.60;99.90;;;;;;4942498;29;20159;-92
2021/03/29 07:26:46;;;;;;;1.85;0.52;;;11.70;99.90;;;;;;4940226;29;20031;-92
2021/03/29 07:29:24;;;;;;;1.23;0.50;;;11.70;99.90;;;;;;4940445;29;20065;-95
2021/03/29 07:32:00;;;;;;;2.10;0.60;;;11.70;99.90;;;;;;4940359;29;20031;-94
2021/03/29 07:34:49;;;;;;;0.60;0.38;;;11.70;99.90;;;;;;4938305;29;20031;-95
2021/03/29 07:37:34;;;;;;;3.33;0.60;;;11.70;99.90;;;;;;4958067;29;20039;-94
2021/03/29 07:40:04;;;;;;;1.52;0.50;;;11.80;99.90;;;;;;4930261;29;20023;-94
2021/03/29 07:42:29;;;;;;;1.67;0.50;;;11.80;99.90;;;;;;4936665;29;20359;-94
2021/03/29 07:44:57;;;;;;;0.30;0.30;;;11.80;99.90;;;;;;4939036;29;20038;-93
2021/03/29 07:47:41;;;;;;;0.35;0.20;;;11.80;99.90;;;;;;4939215;29;20389;-93
2021/03/29 07:50:09;;;;;;;1.15;0.60;;;11.90;99.90;;;;;;4921720;28;20027;-94
2021/03/29 07:52:40;;;;;;;0.80;0.30;;;11.90;99.90;;;;;;4932372;29;20110;-93
2021/03/29 07:56:01;;;;;;;1.02;0.40;;;11.90;99.90;;;;;;4943918;28;20094;-94
2021/03/29 07:58:27;;;;;;;1.20;0.63;;;11.90;99.90;;;;;;4920968;29;20050;-94
2021/03/29 08:00:57;;;;;;;0.20;0.20;;;11.90;99.90;;;;;;4938726;29;20358;-95
2021/03/29 08:03:35;;;;;;;0.17;0.13;;;11.90;99.90;;;;;;4936263;29;20031;-95
2021/03/29 08:06:01;;;;;;;0.30;0.30;;;12.00;99.90;;;;;;4936886;29;20031;-93
2021/03/29 08:08:27;;;;;;;1.85;0.40;;;12.00;99.90;;;;;;4938819;29;20020;-93
2021/03/29 08:11:01;;;;;;;0.30;0.20;;;12.00;99.90;;;;;;4938348;28;20015;-95
2021/03/29 08:13:52;;;;;;;2.58;0.40;;;12.10;99.90;;;;;;4942762;29;20031;-95
2021/03/29 08:16:25;;;;;;;0.73;0.30;;;12.00;99.90;;;;;;4958563;29;20102;-95
2021/03/29 08:19:09;;;;;;;3.42;0.38;;;12.10;99.90;;;;;;4960040;29;20019;-93
2021/03/29 08:22:02;;;;;;;1.08;0.40;;;12.10;99.90;;;;;;4953161;29;20055;-93
2021/03/29 08:24:45;;;;;;;0.63;0.20;;;12.20;99.90;;;;;;4935040;29;20027;-93
2021/03/29 08:27:31;;;;;;;0.65;0.60;;;12.20;99.90;;;;;;4935191;29;20102;-94
2021/03/29 08:30:16;;;;;;;0.73;0.38;;;12.30;99.90;;;;;;4939271;29;20027;-95
2021/03/29 08:32:43;;;;;;;0.30;0.30;;;12.30;99.90;;;;;;4930098;29;20765;-92
2021/03/29 08:35:12;;;;;;;0.38;0.30;;;12.40;99.90;;;;;;4931386;29;20027;-93
2021/03/29 08:37:43;;;;;;;1.60;0.25;;;12.40;99.90;;;;;;4933408;29;20050;-93
2021/03/29 08:40:12;;;;;;;1.08;0.20;;;12.50;99.90;;;;;;4934413;29;20054;-95
2021/03/29 08:42:40;;;;;;;1.20;0.70;;;12.50;99.90;;;;;;4930707;29;20039;-93
2021/03/29 08:45:11;;;;;;;0.40;0.22;;;12.60;99.90;;;;;;4956738;29;20378;-91
2021/03/29 08:47:42;;;;;;;1.38;0.47;;;12.60;99.90;;;;;;4933705;29;20066;-95
2021/03/29 08:50:11;;;;;;;1.05;0.30;;;12.60;99.90;;;;;;4935429;29;20508;-94
2021/03/29 08:52:47;;;;;;;0.32;0.20;;;12.70;99.90;;;;;;4936144;29;20103;-95
2021/03/29 08:55:27;;;;;;;0.20;0.20;;;12.70;99.90;;;;;;4935938;29;20101;-96
2021/03/29 08:57:54;;;;;;;0.47;0.30;;;12.80;99.90;;;;;;4942360;29;20035;-94
2021/03/29 09:00:23;;;;;;;0.17;0.17;;;12.80;99.90;;;;;;4930160;29;20777;-94
2021/03/29 09:02:49;;;;;;;0.40;0.20;;;12.90;99.90;;;;;;4936692;29;20051;-96
2021/03/29 09:05:17;;;;;;;0.13;0.10;;;12.90;99.90;;;;;;4937470;29;20095;-93
2021/03/29 09:07:53;;;;;;;1.63;0.47;;;12.90;99.90;;;;;;4933728;29;20544;-93
2021/03/29 09:10:22;;;;;;;0.57;0.43;;;12.90;99.90;;;;;;4939196;29;20035;-94
2021/03/29 09:12:58;;;;;;;0.50;0.40;;;13.00;99.90;;;;;;4937582;29;20389;-95
2021/03/29 09:15:26;;;;;;;0.47;0.30;;;13.10;99.90;;;;;;4941297;29;20032;-95
2021/03/29 09:18:01;;;;;;;1.30;0.40;;;13.10;99.90;;;;;;4933914;29;20520;-94
2021/03/29 09:20:29;;;;;;;0.52;0.22;;;13.10;99.90;;;;;;4924954;29;20031;-93
2021/03/29 09:22:55;;;;;;;1.08;0.30;;;13.20;99.90;;;;;;4934344;29;20020;-94
2021/03/29 09:25:34;;;;;;;0.82;0.45;;;13.20;99.90;;;;;;4930335;29;20062;-95
2021/03/29 09:28:18;;;;;;;0.35;0.30;;;13.30;99.90;;;;;;4934232;29;20425;-95
2021/03/29 09:30:47;;;;;;;0.80;0.75;;;13.40;99.90;;;;;;4927876;29;20473;-94
2021/03/29 09:33:14;;;;;;;0.88;0.40;;;13.40;99.90;;;;;;4932868;29;20503;-95
2021/03/29 09:35:40;;;;;;;0.60;0.40;;;13.50;99.90;;;;;;4929723;29;20027;-94
2021/03/29 09:38:06;;;;;;;1.27;0.50;;;13.60;99.90;;;;;;4928351;29;20105;-96
2021/03/29 09:40:36;;;;;;;1.92;0.40;;;13.60;99.90;;;;;;4911517;29;20028;-95
2021/03/29 09:43:05;;;;;;;0.75;0.65;;;13.60;99.90;;;;;;4926189;29;20106;-94
2021/03/29 09:45:33;;;;;;;4.55;0.60;;;13.70;99.90;;;;;;4927029;29;20389;-93
2021/03/29 09:48:01;;;;;;;0.38;0.30;;;13.70;99.90;;;;;;4932571;29;20020;-94
2021/03/29 09:50:46;;;;;;;2.33;0.65;;;13.70;99.90;;;;;;4922989;29;20047;-95
2021/03/29 09:53:17;;;;;;;1.42;0.50;;;13.70;99.90;;;;;;4932254;29;20049;-93
2021/03/29 09:55:52;;;;;;;1.52;0.60;;;13.70;99.90;;;;;;4938869;29;20378;-94
2021/03/29 09:58:27;;;;;;;2.17;0.50;;;13.70;99.90;;;;;;4940773;29;20027;-94
2021/03/29 10:00:56;;;;;;;2.45;0.47;;;13.70;99.90;;;;;;4939922;29;20078;-94
2021/03/29 10:03:23;;;;;;;6.88;1.00;;;13.70;99.90;;;;;;4940492;29;20031;-94
2021/03/29 10:05:51;;;;;;;1.67;0.65;;;13.80;99.90;;;;;;4927572;29;20031;-94
2021/03/29 10:08:28;;;;;;;4.95;1.60;;;13.80;99.90;;;;;;4941278;29;20031;-94
2021/03/29 10:11:09;;;;;;;3.72;0.80;;;13.80;99.90;;;;;;4933738;29;20417;-93
2021/03/29 10:13:40;;;;;;;2.90;0.63;;;13.90;99.90;;;;;;4931379;29;20486;-93
2021/03/29 10:16:23;;;;;;;3.92;1.15;;;14.00;99.90;;;;;;4928635;29;20111;-95
2021/03/29 10:19:07;;;;;;;2.10;0.80;;;14.10;99.90;;;;;;4946510;29;20381;-93
2021/03/29 10:21:34;;;;;;;2.90;0.50;;;14.20;99.90;;;;;;4927837;29;20091;-95
2021/03/29 10:24:14;;;;;;;9.52;1.55;;;14.20;99.90;;;;;;4944694;29;20028;-95
2021/03/29 10:26:51;;;;;;;6.77;1.03;;;14.30;99.90;;;;;;4952457;29;20040;-94
2021/03/29 10:29:46;;;;;;;3.55;0.70;;;14.30;99.90;;;;;;4949655;29;20342;-93
2021/03/29 10:32:14;;;;;;;1.90;0.65;;;14.40;99.90;;;;;;4955660;29;20031;-94
2021/03/29 10:34:41;;;;;;;2.03;0.65;;;14.40;99.90;;;;;;4931926;29;20036;-95
2021/03/29 10:37:29;;;;;;;3.42;0.70;;;14.40;99.90;;;;;;4939937;29;20152;-92
2021/03/29 10:39:57;;;;;;;0.52;0.50;;;14.50;99.90;;;;;;4929448;29;20031;-92
2021/03/29 10:42:25;;;;;;;3.90;0.47;;;14.50;99.90;;;;;;4934962;29;20051;-95
2021/03/29 10:44:52;;;;;;;2.47;0.73;;;14.60;99.90;;;;;;4936460;29;20409;-94
2021/03/29 10:47:18;;;;;;;1.48;0.93;;;14.60;99.90;;;;;;4936683;29;20031;-92
2021/03/29 10:49:44;;;;;;;1.20;0.73;;;14.60;99.90;;;;;;4927925;29;20029;-92
2021/03/29 10:52:10;;;;;;;2.58;0.60;;;14.60;99.30;;;;;;4943814;29;20032;-93
2021/03/29 10:54:36;;;;;;;1.73;0.60;;;14.50;99.60;;;;;;4944595;29;20027;-93
2021/03/29 10:57:03;;;;;;;1.98;0.70;;;14.60;99.70;;;;;;4948289;29;20058;-94
2021/03/29 10:59:29;;;;;;;2.88;0.60;;;14.60;99.80;;;;;;4950450;29;20019;-92
2021/03/29 11:01:54;;;;;;;2.15;0.60;;;14.70;99.70;;;;;;4973052;28;20035;-92
2021/03/29 11:04:20;;;;;;;3.50;0.80;;;14.70;99.70;;;;;;4940904;29;20042;-94
2021/03/29 11:06:46;;;;;;;1.98;0.77;;;14.80;99.60;;;;;;4940355;29;20039;-94
2021/03/29 11:09:11;;;;;;;2.10;0.52;;;14.90;99.30;;;;;;4928990;29;20118;-94
2021/03/29 11:11:37;;;;;;;2.10;0.70;;;14.90;99.40;;;;;;4940352;29;20062;-94
2021/03/29 11:14:04;;;;;;;0.93;0.63;;;15.00;99.50;;;;;;4942335;29;20023;-93
2021/03/29 11:16:30;;;;;;;1.30;0.60;;;15.10;99.30;;;;;;4942019;29;20024;-93
2021/03/29 11:18:55;;;;;;;3.47;1.02;;;15.10;98.80;;;;;;4934653;29;20038;-94
2021/03/29 11:21:21;;;;;;;2.17;1.45;;;15.10;98.80;;;;;;4938561;29;20046;-96
2021/03/29 11:23:47;;;;;;;3.55;0.95;;;15.10;98.60;;;;;;4943887;29;20083;-94
2021/03/29 11:26:13;;;;;;;2.28;0.70;;;15.10;98.30;;;;;;4939282;29;20075;-93
2021/03/29 11:28:39;;;;;;;3.22;0.90;;;15.10;98.30;;;;;;4963435;28;20024;-95
2021/03/29 11:31:05;;;;;;;3.80;1.50;;;15.20;98.40;;;;;;4959514;28;20020;-96
2021/03/29 11:33:31;;;;;;;4.10;1.40;;;15.40;98.30;;;;;;4961561;28;20502;-95
2021/03/29 11:35:56;;;;;;;1.92;0.88;;;15.40;98.00;;;;;;4932708;29;20020;-94
2021/03/29 11:38:22;;;;;;;2.20;1.17;;;15.50;97.70;;;;;;4961160;28;20425;-94
2021/03/29 11:40:48;;;;;;;8.32;2.08;;;15.50;97.20;;;;;;4927225;29;20106;-94
2021/03/29 11:43:14;;;;;;;3.33;1.20;;;15.60;97.20;;;;;;4960194;28;20031;-95
2021/03/29 11:45:40;;;;;;;4.57;1.42;;;15.60;97.10;;;;;;4930027;28;20062;-93
2021/03/29 11:48:06;;;;;;;5.28;1.45;;;15.60;96.80;;;;;;4932297;29;20050;-93
2021/03/29 11:50:32;;;;;;;3.00;1.17;;;15.60;96.60;;;;;;4934426;29;20063;-94
2021/03/29 11:52:58;;;;;;;5.30;1.38;;;15.70;96.40;;;;;;4933576;29;20016;-94
2021/03/29 11:55:24;;;;;;;8.63;1.67;;;15.70;96.50;;;;;;4931970;29;20055;-94
2021/03/29 11:57:50;;;;;;;7.85;1.80;;;15.70;96.40;;;;;;4931901;29;20032;-96
2021/03/29 12:00:47;;;;;;;7.13;1.50;;;15.70;96.10;;;;;;4968485;28;20504;-94
2021/03/29 12:03:24;;;;;;;5.30;1.38;;;15.80;95.90;;;;;;4938890;28;20027;-95
2021/03/29 12:06:04;;;;;;;7.68;1.90;;;15.80;95.70;;;;;;4932923;29;20035;-93
2021/03/29 12:14:02;;;;;;;3.33;1.40;;;16.40;95.00;;;;;;4942548;29;20070;-93
2021/03/29 12:16:31;;;;;;;7.43;1.70;;;16.60;94.70;;;;;;4941626;29;20023;-94
2021/03/29 12:18:58;;;;;;;4.38;1.60;;;16.70;94.50;;;;;;4954973;29;20029;-94
2021/03/29 12:21:36;;;;;;;6.00;1.70;;;16.90;93.90;;;;;;4941883;29;20063;-95
2021/03/29 12:24:13;;;;;;;3.47;1.30;;;17.00;93.20;;;;;;4942222;29;20019;-96
2021/03/29 12:26:42;;;;;;;7.60;1.73;;;17.00;93.10;;;;;;4942826;29;20047;-95
2021/03/29 12:29:12;;;;;;;3.72;1.15;;;16.90;92.40;;;;;;4942877;29;20568;-94
2021/03/29 12:31:41;;;;;;;6.57;1.58;;;16.80;92.10;;;;;;4939845;29;20039;-95
2021/03/29 12:34:07;;;;;;;6.35;1.63;;;16.70;92.20;;;;;;4936342;29;20019;-95
2021/03/29 12:40:14;;;;;;;6.72;1.52;;;16.50;92.50;;;;;;4948599;29;20050;-94
2021/03/29 12:42:24;;;;;;;7.47;1.67;;;16.50;92.70;;;;;;4954210;29;20099;-95
2021/03/29 12:44:50;;;;;;;5.38;1.50;;;16.60;92.80;;;;;;4941398;29;20035;-94
2021/03/29 12:47:16;;;;;;;6.35;1.50;;;16.80;92.70;;;;;;4942752;29;20042;-96
2021/03/29 12:49:42;;;;;;;6.50;1.63;;;16.90;92.60;;;;;;4959333;29;20051;-96
2021/03/29 12:52:10;;;;;;;6.75;1.42;;;17.30;92.40;;;;;;4942045;29;20059;-95
2021/03/29 12:54:37;;;;;;;4.13;0.85;;;17.80;92.00;;;;;;4967456;29;20030;-94
2021/03/29 12:57:04;;;;;;;4.13;1.30;;;18.30;91.00;;;;;;4948443;29;20047;-94
2021/03/29 12:59:32;;;;;;;3.55;0.90;;;18.70;89.60;;;;;;4948650;29;20033;-92
2021/03/29 13:01:58;;;;;;;2.35;0.80;;;19.10;88.10;;;;;;4949283;29;20059;-93
2021/03/29 13:04:30;;;;;;;6.47;1.10;;;19.20;86.50;;;;;;4944948;29;20050;-93
2021/03/29 13:12:17;;;;;;;3.20;1.10;;;19.20;82.50;;;;;;4965164;28;20027;-94
2021/03/29 13:15:02;;;;;;;3.20;0.90;;;19.30;82.60;;;;;;4942750;29;20023;-95
2021/03/29 13:17:29;;;;;;;2.75;0.90;;;19.70;81.60;;;;;;4944184;29;20031;-95